createdAt,value
2023-05-25T00:01:44.770Z,64.10
2023-05-25T00:04:17.143Z,64.20
2023-05-25T00:06:45.500Z,64.30
2023-05-25T00:09:15.140Z,64.30
2023-05-25T00:11:41.897Z,64.40
2023-05-25T00:14:08.865Z,65.30
2023-05-25T00:16:40.806Z,64.50
2023-05-25T00:19:11.009Z,64.60
2023-05-25T00:21:41.476Z,65.50
2023-05-25T00:24:08.511Z,64.60
2023-05-25T00:26:35.955Z,64.50
2023-05-25T00:29:04.412Z,64.60
2023-05-25T00:31:35.604Z,64.60
2023-05-25T00:34:05.809Z,64.60
2023-05-25T00:36:32.565Z,64.60
2023-05-25T00:38:59.362Z,64.60
2023-05-25T00:41:27.805Z,64.60
2023-05-25T00:43:54.623Z,64.60
2023-05-25T00:46:22.566Z,64.60
2023-05-25T00:48:56.283Z,64.60
2023-05-25T00:51:23.624Z,64.70
2023-05-25T00:53:50.708Z,64.80
2023-05-25T00:56:24.575Z,64.90
2023-05-25T00:58:54.957Z,64.90
2023-05-25T01:01:27.108Z,65.10
2023-05-25T01:03:57.754Z,65.30
2023-05-25T01:06:27.539Z,65.30
2023-05-25T01:09:00.439Z,65.30
2023-05-25T01:11:32.264Z,65.20
2023-05-25T01:13:59.565Z,65.20
2023-05-25T01:16:26.802Z,65.20
2023-05-25T01:18:57.004Z,65.10
2023-05-25T01:21:38.177Z,65.40
2023-05-25T01:24:22.276Z,65.40
2023-05-25T01:27:15.091Z,65.60
2023-05-25T01:29:45.562Z,65.50
2023-05-25T01:32:14.250Z,65.60
2023-05-25T01:34:43.998Z,65.70
2023-05-25T01:37:13.564Z,65.80
2023-05-25T01:39:43.825Z,65.50
2023-05-25T01:42:11.005Z,65.80
2023-05-25T01:44:41.282Z,65.80
2023-05-25T01:47:16.765Z,65.90
2023-05-25T01:50:03.168Z,65.90
2023-05-25T01:52:51.597Z,66.00
2023-05-25T01:55:19.652Z,65.80
2023-05-25T01:57:50.723Z,65.80
2023-05-25T02:00:19.800Z,66.10
2023-05-25T02:02:50.224Z,66.00
2023-05-25T02:05:22.200Z,65.90
2023-05-25T02:07:49.551Z,66.00
2023-05-25T02:10:16.488Z,66.00
2023-05-25T02:12:43.352Z,66.10
2023-05-25T02:15:11.711Z,66.00
2023-05-25T02:17:38.704Z,65.90
2023-05-25T02:20:09.833Z,65.90
2023-05-25T02:22:37.932Z,66.00
2023-05-25T02:25:05.807Z,66.20
2023-05-25T02:27:35.767Z,66.40
2023-05-25T02:30:02.811Z,66.40
2023-05-25T02:32:29.723Z,66.40
2023-05-25T02:34:56.681Z,66.60
2023-05-25T02:37:23.442Z,66.70
2023-05-25T02:39:50.487Z,66.70
2023-05-25T02:42:19.829Z,66.70
2023-05-25T02:44:48.456Z,66.80
2023-05-25T02:47:16.612Z,66.90
2023-05-25T02:49:43.595Z,67.00
2023-05-25T02:52:10.396Z,67.10
2023-05-25T02:54:39.939Z,67.20
2023-05-25T02:57:08.464Z,67.30
2023-05-25T02:59:35.393Z,67.30
2023-05-25T03:02:02.467Z,67.30
2023-05-25T03:04:33.130Z,67.50
2023-05-25T03:07:00.679Z,67.40
2023-05-25T03:09:27.490Z,67.60
2023-05-25T03:11:54.469Z,67.60
2023-05-25T03:14:21.407Z,67.60
2023-05-25T03:16:48.445Z,67.80
2023-05-25T03:19:15.584Z,67.80
2023-05-25T03:21:42.568Z,67.80
2023-05-25T03:24:09.414Z,67.90
2023-05-25T03:26:36.249Z,68.00
2023-05-25T03:29:03.385Z,68.00
2023-05-25T03:31:30.639Z,68.10
2023-05-25T03:33:57.467Z,68.20
2023-05-25T03:36:29.552Z,68.20
2023-05-25T03:38:56.486Z,68.40
2023-05-25T03:41:23.353Z,68.40
2023-05-25T03:43:50.446Z,68.50
2023-05-25T03:46:17.364Z,68.40
2023-05-25T03:48:44.263Z,69.00
2023-05-25T03:51:11.181Z,68.10
2023-05-25T03:53:38.234Z,68.10
2023-05-25T03:56:05.606Z,68.20
2023-05-25T03:58:32.364Z,68.30
2023-05-25T04:00:59.101Z,68.40
2023-05-25T04:03:29.972Z,68.50
2023-05-25T04:05:58.165Z,68.40
2023-05-25T04:08:25.068Z,68.30
2023-05-25T04:10:51.891Z,68.30
2023-05-25T04:13:18.789Z,68.40
2023-05-25T04:15:45.745Z,68.40
2023-05-25T04:18:12.724Z,68.40
2023-05-25T04:20:39.760Z,68.50
2023-05-25T04:23:06.643Z,68.60
2023-05-25T04:25:33.519Z,68.70
2023-05-25T04:28:00.810Z,68.80
2023-05-25T04:30:30.532Z,68.80
2023-05-25T04:33:02.804Z,68.90
2023-05-25T04:35:33.973Z,69.00
2023-05-25T04:38:02.991Z,69.00
2023-05-25T04:40:30.166Z,69.10
2023-05-25T04:42:57.152Z,69.20
2023-05-25T04:45:24.346Z,69.40
2023-05-25T04:47:51.443Z,69.40
2023-05-25T04:50:18.593Z,69.50
2023-05-25T04:52:45.648Z,69.50
2023-05-25T04:55:12.623Z,69.50
2023-05-25T04:57:39.600Z,69.60
2023-05-25T05:00:09.712Z,69.60
2023-05-25T05:02:36.643Z,69.70
2023-05-25T05:05:03.954Z,70.00
2023-05-25T05:07:31.810Z,70.10
2023-05-25T05:09:58.719Z,70.00
2023-05-25T05:12:25.705Z,70.20
2023-05-25T05:14:53.174Z,70.20
2023-05-25T05:17:28.047Z,70.20
2023-05-25T05:19:54.998Z,70.40
2023-05-25T05:22:21.945Z,70.30
2023-05-25T05:24:48.940Z,70.30
2023-05-25T05:27:16.240Z,70.50
2023-05-25T05:29:43.018Z,70.40
2023-05-25T05:32:09.928Z,70.60
2023-05-25T05:34:37.571Z,70.60
2023-05-25T05:37:07.217Z,70.70
2023-05-25T05:39:34.002Z,70.80
2023-05-25T05:42:04.257Z,70.80
2023-05-25T05:44:31.108Z,71.00
2023-05-25T05:47:01.178Z,71.00
2023-05-25T05:49:29.543Z,71.10
2023-05-25T05:51:56.539Z,71.20
2023-05-25T05:54:24.106Z,71.20
2023-05-25T05:56:51.618Z,71.40
2023-05-25T05:59:18.429Z,71.30
2023-05-25T06:01:45.589Z,71.40
2023-05-25T06:04:12.469Z,71.40
2023-05-25T06:06:40.613Z,71.40
2023-05-25T06:09:08.049Z,71.50
2023-05-25T06:11:37.755Z,71.50
2023-05-25T06:14:04.600Z,71.70
2023-05-25T06:16:33.152Z,71.70
2023-05-25T06:19:00.065Z,71.70
2023-05-25T06:21:27.097Z,71.70
2023-05-25T06:23:57.732Z,71.90
2023-05-25T06:26:25.068Z,71.90
2023-05-25T06:28:54.854Z,71.80
2023-05-25T06:31:22.245Z,71.90
2023-05-25T06:33:49.130Z,71.90
2023-05-25T06:36:16.099Z,71.90
2023-05-25T06:38:43.162Z,72.00
2023-05-25T06:41:12.904Z,72.10
2023-05-25T06:43:39.798Z,72.20
2023-05-25T06:46:06.657Z,72.60
2023-05-25T06:48:33.479Z,73.50
2023-05-25T06:51:00.320Z,73.60
2023-05-25T06:53:27.122Z,74.40
2023-05-25T06:55:53.962Z,73.90
2023-05-25T06:58:20.884Z,71.90
2023-05-25T07:00:50.023Z,70.50
2023-05-25T07:03:19.764Z,69.60
2023-05-25T07:05:46.660Z,69.00
2023-05-25T07:08:13.542Z,68.10
2023-05-25T07:10:40.335Z,67.10
2023-05-25T07:13:07.145Z,66.50
2023-05-25T07:15:33.964Z,66.00
2023-05-25T07:18:00.828Z,66.60
2023-05-25T07:20:27.770Z,67.50
2023-05-25T07:22:54.714Z,67.40
2023-05-25T07:25:21.724Z,66.90
2023-05-25T07:27:50.376Z,65.40
2023-05-25T07:30:17.425Z,63.40
2023-05-25T07:32:44.254Z,62.00
2023-05-25T07:35:11.172Z,61.70
2023-05-25T07:37:41.053Z,61.60
2023-05-25T07:40:08.438Z,61.30
2023-05-25T07:42:35.460Z,61.20
2023-05-25T07:45:03.014Z,60.90
2023-05-25T07:47:29.866Z,60.70
2023-05-25T07:49:56.818Z,60.00
2023-05-25T07:52:23.604Z,59.50
2023-05-25T07:54:50.442Z,58.90
2023-05-25T07:57:17.439Z,58.60
2023-05-25T07:59:44.990Z,58.00
2023-05-25T08:02:11.772Z,57.90
2023-05-25T08:04:38.722Z,57.40
2023-05-25T08:07:05.674Z,56.80
2023-05-25T08:09:32.663Z,56.70
2023-05-25T08:12:18.498Z,56.50
2023-05-25T08:14:47.110Z,56.60
2023-05-25T08:17:14.255Z,56.70
2023-05-25T08:19:41.455Z,56.70
2023-05-25T08:22:08.354Z,56.90
2023-05-25T08:24:37.760Z,56.70
2023-05-25T08:27:06.189Z,56.20
2023-05-25T08:29:32.993Z,56.10
2023-05-25T08:31:59.760Z,56.10
2023-05-25T08:34:26.861Z,55.60
2023-05-25T08:36:54.132Z,55.40
2023-05-25T08:39:20.893Z,55.10
2023-05-25T08:41:49.801Z,54.70
2023-05-25T08:44:16.700Z,53.70
2023-05-25T08:46:47.263Z,53.50
2023-05-25T08:49:15.575Z,53.90
2023-05-25T08:51:49.600Z,53.90
2023-05-25T08:54:36.984Z,53.60
2023-05-25T08:57:17.304Z,53.90
2023-05-25T08:59:52.345Z,54.40
2023-05-25T09:02:25.691Z,54.70
2023-05-25T09:04:55.153Z,54.00
2023-05-25T09:07:26.391Z,54.70
2023-05-25T09:09:54.057Z,53.90
2023-05-25T09:12:22.253Z,53.20
2023-05-25T09:14:49.582Z,53.30
2023-05-25T09:17:19.750Z,52.90
2023-05-25T09:19:47.857Z,52.60
2023-05-25T09:22:16.645Z,52.20
2023-05-25T09:24:45.538Z,51.80
2023-05-25T09:27:17.371Z,51.90
2023-05-25T09:29:44.812Z,51.60
2023-05-25T09:32:11.726Z,52.00
2023-05-25T09:34:38.689Z,51.50
2023-05-25T09:37:17.448Z,51.40
2023-05-25T09:39:45.374Z,51.50
2023-05-25T09:42:12.497Z,51.90
2023-05-25T09:44:42.619Z,52.20
2023-05-25T09:47:10.231Z,52.20
2023-05-25T09:49:37.226Z,52.50
2023-05-25T09:52:04.346Z,52.40
2023-05-25T09:54:31.384Z,52.40
2023-05-25T09:57:02.065Z,52.20
2023-05-25T09:59:28.874Z,52.30
2023-05-25T10:01:57.044Z,52.80
2023-05-25T10:04:26.673Z,52.60
2023-05-25T10:06:53.831Z,52.10
2023-05-25T10:09:21.641Z,52.00
2023-05-25T10:11:52.561Z,52.00
2023-05-25T10:14:28.009Z,52.10
2023-05-25T10:16:58.480Z,52.30
2023-05-25T10:19:42.787Z,52.20
2023-05-25T10:22:25.315Z,52.20
2023-05-25T10:24:51.987Z,52.30
2023-05-25T10:27:27.646Z,52.70
2023-05-25T10:29:57.670Z,52.70
2023-05-25T10:32:24.895Z,52.70
2023-05-25T10:34:54.903Z,52.90
2023-05-25T10:37:27.603Z,54.10
2023-05-25T10:39:55.638Z,53.80
2023-05-25T10:42:22.957Z,52.90
2023-05-25T10:44:50.474Z,52.50
2023-05-25T10:47:17.642Z,52.20
2023-05-25T10:49:59.028Z,51.60
2023-05-25T10:52:31.732Z,51.30
2023-05-25T10:55:05.209Z,51.10
2023-05-25T10:57:35.304Z,50.90
2023-05-25T11:00:08.517Z,50.10
2023-05-25T11:02:53.683Z,50.30
2023-05-25T11:05:26.883Z,50.50
2023-05-25T11:07:55.043Z,50.40
2023-05-25T11:10:49.437Z,50.60
2023-05-25T11:13:40.968Z,50.60
2023-05-25T11:16:27.463Z,50.80
2023-05-25T11:19:00.076Z,51.00
2023-05-25T11:21:27.218Z,51.10
2023-05-25T11:23:57.981Z,51.40
2023-05-25T11:26:30.177Z,51.20
2023-05-25T11:29:00.749Z,51.40
2023-05-25T11:31:39.089Z,51.30
2023-05-25T11:34:09.441Z,50.90
2023-05-25T11:36:36.692Z,51.10
2023-05-25T11:39:14.241Z,51.00
2023-05-25T11:41:52.268Z,50.80
2023-05-25T11:44:29.908Z,50.80
2023-05-25T11:47:01.743Z,50.90
2023-05-25T11:49:31.459Z,50.20
2023-05-25T11:51:58.555Z,50.30
2023-05-25T11:54:29.592Z,50.50
2023-05-25T11:57:01.481Z,50.00
2023-05-25T11:59:32.840Z,49.40
2023-05-25T12:02:04.249Z,48.90
2023-05-25T12:04:34.888Z,48.30
2023-05-25T12:07:06.049Z,48.40
2023-05-25T12:09:33.327Z,48.40
2023-05-25T12:12:02.852Z,48.40
2023-05-25T12:14:30.610Z,48.60
2023-05-25T12:16:57.903Z,48.80
2023-05-25T12:19:27.909Z,49.00
2023-05-25T12:21:55.856Z,49.20
2023-05-25T12:24:22.760Z,49.30
2023-05-25T12:26:50.982Z,50.30
2023-05-25T12:29:17.772Z,49.30
2023-05-25T12:31:44.611Z,49.10
2023-05-25T12:34:12.154Z,49.00
2023-05-25T12:36:40.046Z,49.30
2023-05-25T12:39:07.826Z,49.20
2023-05-25T12:41:54.297Z,48.90
2023-05-25T12:44:32.466Z,48.80
2023-05-25T12:47:23.237Z,48.80
2023-05-25T12:49:52.065Z,49.20
2023-05-25T12:52:38.744Z,49.30
2023-05-25T12:55:23.267Z,49.20
2023-05-25T12:57:53.063Z,49.40
2023-05-25T13:00:41.078Z,49.50
2023-05-25T13:03:08.500Z,49.60
2023-05-25T13:05:37.023Z,49.70
2023-05-25T13:08:05.341Z,49.90
2023-05-25T13:10:33.368Z,49.80
2023-05-25T13:13:00.172Z,49.70
2023-05-25T13:15:29.004Z,50.40
2023-05-25T13:17:58.995Z,49.50
2023-05-25T13:20:27.598Z,49.30
2023-05-25T13:22:57.649Z,49.40
2023-05-25T13:25:27.263Z,49.20
2023-05-25T13:27:55.041Z,49.20
2023-05-25T13:30:22.494Z,49.00
2023-05-25T13:32:51.571Z,48.90
2023-05-25T13:35:23.448Z,49.10
2023-05-25T13:37:51.243Z,49.00
2023-05-25T13:40:22.012Z,49.00
2023-05-25T13:42:50.802Z,49.00
2023-05-25T13:45:18.196Z,49.00
2023-05-25T13:47:46.123Z,49.10
2023-05-25T13:50:13.002Z,49.00
2023-05-25T13:52:44.367Z,48.60
2023-05-25T13:55:11.400Z,48.60
2023-05-25T13:57:38.158Z,48.70
2023-05-25T14:00:06.280Z,48.60
2023-05-25T14:02:34.133Z,48.70
2023-05-25T14:05:01.324Z,48.80
2023-05-25T14:07:28.096Z,48.90
2023-05-25T14:09:54.900Z,48.60
2023-05-25T14:12:21.802Z,48.50
2023-05-25T14:14:48.721Z,48.80
2023-05-25T14:17:15.539Z,49.20
2023-05-25T14:19:45.358Z,49.00
2023-05-25T14:22:14.323Z,48.70
2023-05-25T14:24:42.210Z,48.70
2023-05-25T14:27:09.186Z,49.00
2023-05-25T14:29:36.190Z,49.10
2023-05-25T14:32:03.271Z,49.50
2023-05-25T14:34:30.176Z,49.50
2023-05-25T14:36:57.059Z,49.40
2023-05-25T14:39:23.927Z,49.30
2023-05-25T14:41:50.874Z,48.90
2023-05-25T14:44:20.615Z,48.80
2023-05-25T14:46:47.524Z,48.90
2023-05-25T14:49:14.433Z,48.90
2023-05-25T14:51:41.386Z,48.80
2023-05-25T14:54:08.300Z,48.70
2023-05-25T14:56:35.489Z,48.60
2023-05-25T14:59:02.329Z,48.50
2023-05-25T15:01:32.050Z,48.10
2023-05-25T15:03:59.035Z,47.40
2023-05-25T15:06:25.866Z,47.20
2023-05-25T15:08:52.693Z,47.40
2023-05-25T15:11:19.561Z,47.30
2023-05-25T15:13:46.598Z,47.40
2023-05-25T15:16:14.753Z,47.70
2023-05-25T15:18:41.702Z,48.10
2023-05-25T15:21:08.780Z,48.30
2023-05-25T15:23:35.836Z,47.90
2023-05-25T15:26:07.743Z,47.60
2023-05-25T15:28:35.325Z,47.30
2023-05-25T15:31:05.371Z,47.40
2023-05-25T15:33:48.416Z,47.60
2023-05-25T15:36:16.753Z,47.80
2023-05-25T15:38:44.472Z,48.00
2023-05-25T15:41:14.470Z,47.90
2023-05-25T15:43:57.969Z,47.90
2023-05-25T15:46:25.180Z,48.10
2023-05-25T15:48:51.978Z,48.20
2023-05-25T15:51:21.145Z,48.40
2023-05-25T15:53:50.990Z,48.40
2023-05-25T15:56:17.793Z,47.90
2023-05-25T15:58:48.815Z,47.80
2023-05-25T16:01:15.778Z,47.70
2023-05-25T16:03:43.186Z,47.50
2023-05-25T16:06:10.480Z,47.60
2023-05-25T16:08:37.315Z,47.60
2023-05-25T16:11:04.234Z,47.20
2023-05-25T16:13:31.028Z,47.10
2023-05-25T16:15:57.908Z,46.70
2023-05-25T16:18:24.775Z,46.80
2023-05-25T16:20:56.133Z,46.80
2023-05-25T16:23:24.059Z,46.80
2023-05-25T16:25:51.211Z,47.10
2023-05-25T16:28:18.123Z,47.20
2023-05-25T16:30:45.060Z,47.30
2023-05-25T16:33:12.058Z,47.50
2023-05-25T16:35:38.996Z,47.40
2023-05-25T16:38:05.717Z,47.10
2023-05-25T16:40:33.425Z,47.00
2023-05-25T16:43:03.191Z,47.10
2023-05-25T16:45:29.926Z,47.00
2023-05-25T16:47:56.696Z,47.10
2023-05-25T16:50:23.558Z,47.20
2023-05-25T16:52:50.319Z,47.20
2023-05-25T16:55:17.272Z,47.20
2023-05-25T16:57:44.005Z,47.20
2023-05-25T17:00:11.579Z,47.30
2023-05-25T17:02:38.394Z,47.20
2023-05-25T17:05:06.841Z,47.40
2023-05-25T17:07:34.526Z,47.60
2023-05-25T17:10:04.298Z,47.60
2023-05-25T17:12:31.626Z,47.50
2023-05-25T17:14:58.384Z,47.40
2023-05-25T17:17:28.099Z,47.40
2023-05-25T17:19:56.371Z,47.40
2023-05-25T17:22:23.229Z,47.40
2023-05-25T17:24:50.026Z,47.50
2023-05-25T17:27:17.075Z,47.50
2023-05-25T17:29:43.814Z,47.70
2023-05-25T17:32:10.862Z,47.80
2023-05-25T17:34:37.841Z,47.80
2023-05-25T17:37:04.919Z,47.80
2023-05-25T17:39:31.635Z,48.00
2023-05-25T17:41:58.378Z,48.10
2023-05-25T17:44:26.086Z,48.20
2023-05-25T17:46:52.834Z,48.40
2023-05-25T17:49:22.050Z,48.60
2023-05-25T17:51:48.880Z,48.70
2023-05-25T17:54:18.584Z,48.60
2023-05-25T17:56:46.032Z,48.60
2023-05-25T17:59:12.820Z,48.90
2023-05-25T18:01:40.786Z,49.00
2023-05-25T18:04:07.837Z,49.00
2023-05-25T18:06:34.785Z,49.20
2023-05-25T18:09:01.582Z,49.30
2023-05-25T18:11:30.048Z,49.50
2023-05-25T18:14:00.551Z,49.70
2023-05-25T18:16:30.031Z,49.90
2023-05-25T18:18:59.082Z,49.80
2023-05-25T18:21:25.948Z,49.80
2023-05-25T18:23:52.772Z,49.60
2023-05-25T18:26:19.562Z,49.90
2023-05-25T18:28:46.436Z,49.90
2023-05-25T18:31:13.203Z,50.10
2023-05-25T18:33:41.236Z,50.50
2023-05-25T18:36:10.889Z,50.70
2023-05-25T18:38:37.626Z,50.80
2023-05-25T18:41:04.524Z,50.90
2023-05-25T18:43:31.317Z,51.10
2023-05-25T18:45:58.067Z,51.10
2023-05-25T18:48:25.430Z,51.30
2023-05-25T18:50:52.171Z,51.50
2023-05-25T18:53:18.950Z,51.70
2023-05-25T18:55:46.117Z,51.80
2023-05-25T18:58:13.118Z,52.00
2023-05-25T19:00:39.832Z,52.20
2023-05-25T19:03:06.905Z,52.40
2023-05-25T19:05:36.501Z,52.50
2023-05-25T19:08:03.337Z,52.70
2023-05-25T19:10:30.155Z,52.90
2023-05-25T19:12:57.208Z,53.00
2023-05-25T19:15:24.084Z,53.10
2023-05-25T19:17:50.967Z,54.10
2023-05-25T19:20:17.787Z,53.40
2023-05-25T19:22:44.596Z,53.60
2023-05-25T19:25:11.565Z,53.80
2023-05-25T19:27:38.537Z,53.80
2023-05-25T19:30:08.404Z,53.80
2023-05-25T19:32:35.862Z,53.90
2023-05-25T19:35:05.872Z,54.10
2023-05-25T19:37:32.646Z,54.10
2023-05-25T19:39:59.473Z,54.20
2023-05-25T19:42:26.313Z,54.30
2023-05-25T19:44:53.258Z,54.30
2023-05-25T19:47:20.199Z,54.40
2023-05-25T19:49:47.822Z,54.50
2023-05-25T19:52:17.501Z,54.70
2023-05-25T19:54:44.657Z,54.80
2023-05-25T19:57:11.651Z,54.80
2023-05-25T19:59:38.607Z,54.90
2023-05-25T20:02:05.837Z,55.00
2023-05-25T20:04:32.980Z,55.20
2023-05-25T20:06:59.814Z,55.20
2023-05-25T20:09:32.562Z,55.80
2023-05-25T20:12:00.145Z,55.40
2023-05-25T20:14:27.113Z,55.40
2023-05-25T20:16:56.048Z,55.60
2023-05-25T20:19:25.807Z,55.70
2023-05-25T20:21:52.949Z,55.80
2023-05-25T20:24:19.785Z,55.90
2023-05-25T20:26:46.664Z,56.00
2023-05-25T20:29:13.502Z,56.10
2023-05-25T20:31:40.595Z,56.20
2023-05-25T20:34:07.448Z,56.20
2023-05-25T20:36:34.194Z,56.40
2023-05-25T20:39:05.255Z,56.50
2023-05-25T20:41:32.132Z,56.60
2023-05-25T20:43:58.972Z,56.60
2023-05-25T20:46:26.335Z,56.80
2023-05-25T20:48:53.586Z,56.90
2023-05-25T20:51:21.790Z,56.90
2023-05-25T20:53:48.776Z,57.00
2023-05-25T20:56:15.798Z,57.00
2023-05-25T20:58:42.515Z,57.00
2023-05-25T21:01:09.622Z,57.00
2023-05-25T21:03:36.719Z,57.00
2023-05-25T21:06:06.987Z,57.10
2023-05-25T21:08:33.896Z,57.20
2023-05-25T21:11:00.988Z,57.20
2023-05-25T21:13:27.907Z,57.20
2023-05-25T21:15:54.732Z,57.30
2023-05-25T21:18:21.596Z,57.40
2023-05-25T21:20:48.974Z,57.50
2023-05-25T21:23:16.633Z,57.60
2023-05-25T21:25:43.615Z,57.60
2023-05-25T21:28:10.728Z,57.80
2023-05-25T21:30:37.679Z,57.70
2023-05-25T21:33:04.500Z,57.80
2023-05-25T21:35:31.324Z,57.90
2023-05-25T21:37:58.139Z,58.00
2023-05-25T21:40:25.110Z,58.00
2023-05-25T21:42:53.568Z,58.10
2023-05-25T21:45:20.890Z,58.20
2023-05-25T21:47:50.476Z,58.30
2023-05-25T21:50:17.439Z,58.30
2023-05-25T21:52:44.368Z,58.40
2023-05-25T21:55:11.176Z,58.40
2023-05-25T21:57:38.112Z,58.50
2023-05-25T22:00:06.544Z,58.50
2023-05-25T22:02:33.602Z,58.60
2023-05-25T22:05:00.582Z,58.60
2023-05-25T22:07:27.597Z,58.70
2023-05-25T22:09:54.547Z,58.80
2023-05-25T22:12:21.477Z,58.90
2023-05-25T22:14:48.402Z,58.90
2023-05-25T22:17:17.377Z,59.00
2023-05-25T22:19:47.043Z,59.10
2023-05-25T22:22:19.213Z,59.20
2023-05-25T22:24:46.276Z,59.30
2023-05-25T22:27:13.108Z,59.30
2023-05-25T22:29:40.174Z,59.40
2023-05-25T22:32:07.504Z,59.40
2023-05-25T22:34:34.324Z,59.50
2023-05-25T22:37:02.613Z,59.60
2023-05-25T22:39:29.397Z,59.70
2023-05-25T22:41:59.295Z,59.70
2023-05-25T22:44:26.138Z,59.80
2023-05-25T22:46:53.380Z,59.80
2023-05-25T22:49:22.135Z,59.90
2023-05-25T22:51:49.039Z,60.00
2023-05-25T22:54:19.446Z,60.00
2023-05-25T22:56:46.548Z,60.20
2023-05-25T22:59:13.654Z,60.20
2023-05-25T23:01:40.642Z,60.30
2023-05-25T23:04:07.725Z,60.40
2023-05-25T23:06:34.757Z,60.50
2023-05-25T23:09:04.971Z,60.70
2023-05-25T23:11:32.251Z,60.60
2023-05-25T23:14:02.643Z,60.70
2023-05-25T23:16:29.502Z,60.70
2023-05-25T23:18:57.078Z,60.90
2023-05-25T23:21:26.893Z,61.00
2023-05-25T23:23:56.300Z,61.10
2023-05-25T23:26:23.044Z,61.10
2023-05-25T23:28:52.772Z,61.20
2023-05-25T23:31:19.707Z,61.40
2023-05-25T23:33:46.568Z,61.30
2023-05-25T23:36:14.080Z,61.40
2023-05-25T23:38:41.228Z,61.50
2023-05-25T23:41:08.354Z,61.60
2023-05-25T23:43:35.240Z,61.60
2023-05-25T23:46:02.489Z,61.70
2023-05-25T23:48:29.317Z,61.80
2023-05-25T23:50:56.265Z,61.80
2023-05-25T23:53:23.029Z,61.90
2023-05-25T23:55:49.940Z,62.10
2023-05-25T23:58:16.737Z,62.10
